Muelle Paraguana, Venezuela
Current Conditions -  °F | °C
As of 10:00 AM on Wednesday 26 Nov 2014 (Local Time) from TNCA Reporting Station
Scattered Clouds Scattered Clouds  
Wind Chill: 84°   Ceiling: Unl
Heat Index: 92°   Visibility: 6mi
Dew Point: 75°   Wind: 22mph
Humidity: 74%   Direction: 90°E
Pressure: 29.91"   Gusts: NA
Location:  11.78°N, 70.15°W
Report Text: TNCA 261400Z 09019KT 9999 SCT020 29/24 Q1013 A2992 NOSIG
Loading
Personal Weather Stations






























Interactive Weather Map New forecast layout! Learn more

10-Day Weather Forecast

Advertisements
Track Severe Weather on mobile